createdAt,value
2023-10-11T00:00:28.969Z,10.17
2023-10-11T00:01:28.989Z,10.15
2023-10-11T00:02:30.366Z,10.17
2023-10-11T00:03:29.767Z,10.15
2023-10-11T00:04:28.985Z,10.14
2023-10-11T00:05:28.890Z,10.10
2023-10-11T00:06:28.885Z,10.09
2023-10-11T00:07:29.599Z,10.09
2023-10-11T00:08:28.862Z,10.09
2023-10-11T00:09:28.837Z,10.07
2023-10-11T00:10:28.835Z,10.06
2023-10-11T00:11:28.974Z,10.06
2023-10-11T00:12:28.800Z,10.04
2023-10-11T00:13:28.778Z,10.03
2023-10-11T00:14:28.799Z,10.01
2023-10-11T00:15:29.477Z,10.03
2023-10-11T00:16:29.455Z,10.03
2023-10-11T00:17:29.127Z,10.03
2023-10-11T00:18:28.958Z,10.01
2023-10-11T00:19:28.734Z,9.99
2023-10-11T00:20:28.706Z,9.97
2023-10-11T00:21:28.675Z,9.97
2023-10-11T00:22:28.663Z,9.94
2023-10-11T00:23:29.374Z,9.91
2023-10-11T00:24:30.078Z,9.89
2023-10-11T00:25:28.634Z,9.88
2023-10-11T00:26:28.795Z,9.88
2023-10-11T00:27:28.582Z,9.88
2023-10-11T00:28:28.572Z,9.88
2023-10-11T00:29:28.562Z,9.86
2023-10-11T00:30:29.313Z,9.85
2023-10-11T00:31:29.309Z,9.83
2023-10-11T00:32:28.816Z,9.81
2023-10-11T00:34:28.528Z,9.78
2023-10-11T00:35:28.475Z,9.78
2023-10-11T00:36:28.472Z,9.75
2023-10-11T00:37:28.446Z,9.71
2023-10-11T00:38:28.429Z,9.70
2023-10-11T00:39:29.145Z,9.67
2023-10-11T00:40:29.057Z,9.66
2023-10-11T00:41:29.798Z,9.66
2023-10-11T00:42:30.331Z,9.67
2023-10-11T00:43:28.375Z,9.70
2023-10-11T00:44:28.363Z,9.67
2023-10-11T00:45:30.301Z,9.66
2023-10-11T00:46:29.467Z,9.64
2023-10-11T00:47:30.341Z,9.63
2023-10-11T00:48:29.135Z,9.60
2023-10-11T00:49:29.054Z,9.60
2023-10-11T00:50:29.017Z,9.57
2023-10-11T00:51:28.257Z,9.56
2023-10-11T00:52:28.251Z,9.56
2023-10-11T00:53:28.248Z,9.53
2023-10-11T00:54:28.972Z,9.53
2023-10-11T00:55:28.957Z,9.52
2023-10-11T00:56:28.174Z,9.49
2023-10-11T00:57:29.585Z,9.48
2023-10-11T00:58:28.161Z,9.50
2023-10-11T00:59:28.142Z,9.49
2023-10-11T01:00:28.132Z,9.48
2023-10-11T01:01:28.173Z,9.48
2023-10-11T01:02:28.270Z,9.48
2023-10-11T01:03:28.911Z,9.49
2023-10-11T01:04:28.187Z,9.48
2023-10-11T01:05:28.818Z,9.45
2023-10-11T01:06:28.273Z,9.40
2023-10-11T01:07:28.091Z,9.39
2023-10-11T01:08:28.023Z,9.35
2023-10-11T01:09:28.000Z,9.35
2023-10-11T01:10:28.092Z,9.28
2023-10-11T01:11:28.695Z,9.34
2023-10-11T01:12:27.970Z,9.31
2023-10-11T01:13:28.694Z,9.30
2023-10-11T01:14:27.931Z,9.31
2023-10-11T01:15:27.919Z,9.30
2023-10-11T01:16:27.988Z,9.25
2023-10-11T01:17:27.990Z,9.24
2023-10-11T01:18:27.959Z,9.23
2023-10-11T01:19:28.651Z,9.21
2023-10-11T01:20:27.860Z,9.20
2023-10-11T01:21:29.264Z,9.23
2023-10-11T01:22:27.832Z,9.23
2023-10-11T01:23:27.808Z,9.25
2023-10-11T01:24:27.796Z,9.25
2023-10-11T01:25:27.789Z,9.25
2023-10-11T01:26:27.766Z,9.24
2023-10-11T01:27:29.163Z,9.24
2023-10-11T01:28:28.483Z,9.21
2023-10-11T01:29:28.451Z,9.23
2023-10-11T01:30:27.721Z,9.20
2023-10-11T01:31:27.716Z,9.21
2023-10-11T01:32:27.679Z,9.16
2023-10-11T01:33:27.780Z,9.18
2023-10-11T01:34:27.753Z,9.15
2023-10-11T01:35:28.366Z,9.12
2023-10-11T01:36:27.638Z,9.09
2023-10-11T01:37:28.282Z,9.09
2023-10-11T01:38:27.651Z,9.09
2023-10-11T01:39:27.632Z,9.09
2023-10-11T01:40:27.638Z,9.05
2023-10-11T01:41:27.559Z,9.05
2023-10-11T01:42:27.559Z,9.05
2023-10-11T01:43:28.285Z,9.06
2023-10-11T01:44:27.528Z,9.05
2023-10-11T01:45:29.468Z,9.05
2023-10-11T01:46:28.430Z,9.05
2023-10-11T01:47:27.520Z,9.04
2023-10-11T01:48:27.556Z,9.04
2023-10-11T01:49:28.873Z,9.04
2023-10-11T01:50:27.434Z,9.04
2023-10-11T01:51:29.390Z,9.04
2023-10-11T01:52:27.427Z,9.05
2023-10-11T01:53:28.803Z,9.04
2023-10-11T01:54:27.660Z,9.02
2023-10-11T01:55:27.359Z,9.02
2023-10-11T01:56:27.543Z,8.99
2023-10-11T01:57:27.353Z,9.01
2023-10-11T01:58:28.108Z,8.99
2023-10-11T01:59:29.261Z,8.97
2023-10-11T02:00:28.888Z,8.94
2023-10-11T02:01:27.347Z,8.94
2023-10-11T02:02:27.318Z,8.94
2023-10-11T02:03:27.451Z,8.91
2023-10-11T02:04:27.252Z,8.91
2023-10-11T02:05:27.261Z,8.88
2023-10-11T02:06:27.277Z,8.88
2023-10-11T02:07:27.931Z,8.87
2023-10-11T02:08:27.188Z,8.88
2023-10-11T02:09:27.954Z,8.83
2023-10-11T02:10:27.156Z,8.83
2023-10-11T02:11:27.201Z,8.81
2023-10-11T02:12:27.143Z,8.79
2023-10-11T02:13:31.122Z,8.76
2023-10-11T02:14:27.110Z,8.76
2023-10-11T02:15:27.830Z,8.84
2023-10-11T02:16:27.189Z,8.90
2023-10-11T02:17:28.512Z,8.93
2023-10-11T02:18:27.054Z,8.93
2023-10-11T02:19:27.238Z,8.91
2023-10-11T02:20:27.027Z,8.93
2023-10-11T02:21:27.019Z,8.91
2023-10-11T02:22:27.215Z,8.88
2023-10-11T02:23:28.383Z,8.88
2023-10-11T02:24:28.105Z,8.88
2023-10-11T02:25:27.700Z,8.86
2023-10-11T02:26:26.951Z,8.84
2023-10-11T02:27:26.938Z,8.81
2023-10-11T02:28:26.928Z,8.78
2023-10-11T02:29:27.462Z,8.78
2023-10-11T02:30:26.896Z,8.79
2023-10-11T02:31:27.644Z,8.79
2023-10-11T02:32:27.652Z,8.81
2023-10-11T02:33:27.713Z,8.83
2023-10-11T02:34:26.873Z,8.79
2023-10-11T02:35:26.821Z,8.76
2023-10-11T02:36:26.797Z,8.79
2023-10-11T02:37:26.788Z,8.78
2023-10-11T02:38:26.774Z,8.78
2023-10-11T02:39:27.512Z,8.79
2023-10-11T02:40:26.754Z,8.78
2023-10-11T02:41:26.846Z,8.76
2023-10-11T02:42:26.723Z,8.78
2023-10-11T02:43:26.726Z,8.79
2023-10-11T02:44:26.691Z,8.78
2023-10-11T02:45:26.768Z,8.76
2023-10-11T02:46:26.710Z,8.78
2023-10-11T02:47:28.624Z,8.76
2023-10-11T02:48:26.713Z,8.76
2023-10-11T02:49:27.232Z,8.73
2023-10-11T02:50:26.627Z,8.75
2023-10-11T02:51:26.595Z,8.72
2023-10-11T02:52:26.582Z,8.72
2023-10-11T02:53:26.596Z,8.69
2023-10-11T02:54:27.336Z,8.68
2023-10-11T02:55:27.942Z,8.69
2023-10-11T02:56:27.262Z,8.69
2023-10-11T02:57:27.282Z,8.68
2023-10-11T02:58:26.513Z,8.68
2023-10-11T02:59:26.486Z,8.68
2023-10-11T03:00:26.534Z,8.68
2023-10-11T03:01:26.532Z,8.63
2023-10-11T03:02:26.477Z,8.63
2023-10-11T03:03:28.480Z,8.60
2023-10-11T03:04:26.418Z,8.63
2023-10-11T03:05:26.416Z,8.62
2023-10-11T03:06:26.383Z,8.62
2023-10-11T03:07:26.391Z,8.62
2023-10-11T03:08:26.378Z,8.60
2023-10-11T03:09:30.074Z,8.60
2023-10-11T03:10:26.352Z,8.60
2023-10-11T03:11:27.721Z,8.58
2023-10-11T03:12:26.403Z,8.57
2023-10-11T03:13:26.331Z,8.54
2023-10-11T03:14:26.324Z,8.53
2023-10-11T03:15:26.286Z,8.53
2023-10-11T03:16:26.251Z,8.50
2023-10-11T03:17:26.344Z,8.48
2023-10-11T03:18:27.064Z,8.51
2023-10-11T03:19:26.212Z,8.51
2023-10-11T03:20:26.209Z,8.51
2023-10-11T03:21:26.228Z,8.51
2023-10-11T03:22:26.186Z,8.48
2023-10-11T03:23:26.948Z,8.48
2023-10-11T03:24:26.196Z,8.48
2023-10-11T03:25:26.127Z,8.48
2023-10-11T03:26:26.843Z,8.50
2023-10-11T03:27:26.819Z,8.48
2023-10-11T03:28:26.092Z,8.47
2023-10-11T03:29:26.825Z,8.47
2023-10-11T03:30:26.573Z,8.47
2023-10-11T03:31:26.120Z,8.45
2023-10-11T03:32:26.029Z,8.45
2023-10-11T03:33:26.129Z,8.47
2023-10-11T03:34:27.406Z,8.44
2023-10-11T03:35:26.962Z,8.40
2023-10-11T03:36:25.984Z,8.37
2023-10-11T03:37:25.968Z,8.39
2023-10-11T03:38:26.418Z,8.37
2023-10-11T03:39:25.974Z,8.36
2023-10-11T03:40:25.925Z,8.35
2023-10-11T03:41:25.933Z,8.35
2023-10-11T03:42:27.314Z,8.36
2023-10-11T03:43:26.441Z,8.36
2023-10-11T03:44:25.880Z,8.35
2023-10-11T03:45:25.908Z,8.35
2023-10-11T03:46:27.809Z,8.33
2023-10-11T03:47:26.018Z,8.32
2023-10-11T03:48:25.866Z,8.33
2023-10-11T03:49:25.820Z,8.32
2023-10-11T03:50:25.808Z,8.32
2023-10-11T03:51:25.866Z,8.32
2023-10-11T03:52:25.863Z,8.29
2023-10-11T03:53:25.829Z,8.32
2023-10-11T03:54:25.790Z,8.30
2023-10-11T03:55:25.733Z,8.30
2023-10-11T03:56:25.718Z,8.30
2023-10-11T03:57:25.712Z,8.32
2023-10-11T03:58:26.415Z,8.30
2023-10-11T03:59:26.445Z,8.30
2023-10-11T04:00:26.814Z,8.29
2023-10-11T04:01:26.349Z,8.29
2023-10-11T04:02:25.649Z,8.28
2023-10-11T04:03:25.715Z,8.29
2023-10-11T04:04:25.680Z,8.29
2023-10-11T04:05:25.611Z,8.29
2023-10-11T04:06:27.005Z,8.26
2023-10-11T04:07:25.554Z,8.25
2023-10-11T04:08:25.548Z,8.25
2023-10-11T04:09:26.361Z,8.20
2023-10-11T04:10:26.239Z,8.20
2023-10-11T04:11:25.513Z,8.20
2023-10-11T04:12:26.278Z,8.21
2023-10-11T04:13:25.486Z,8.25
2023-10-11T04:14:26.206Z,8.26
2023-10-11T04:15:26.178Z,8.26
2023-10-11T04:16:26.183Z,8.25
2023-10-11T04:17:25.474Z,8.28
2023-10-11T04:18:25.464Z,8.29
2023-10-11T04:19:28.974Z,8.33
2023-10-11T04:20:25.397Z,8.33
2023-10-11T04:21:25.462Z,8.33
2023-10-11T04:22:26.096Z,8.32
2023-10-11T04:23:25.355Z,8.30
2023-10-11T04:24:25.409Z,8.30
2023-10-11T04:25:26.780Z,8.28
2023-10-11T04:26:25.301Z,8.18
2023-10-11T04:27:25.326Z,8.15
2023-10-11T04:28:25.315Z,8.11
2023-10-11T04:29:25.268Z,8.10
2023-10-11T04:30:25.364Z,8.07
2023-10-11T04:31:25.259Z,8.07
2023-10-11T04:32:25.235Z,8.07
2023-10-11T04:33:25.312Z,8.04
2023-10-11T04:34:25.205Z,8.04
2023-10-11T04:35:25.324Z,8.04
2023-10-11T04:36:25.184Z,8.04
2023-10-11T04:37:25.206Z,8.03
2023-10-11T04:38:25.927Z,8.03
2023-10-11T04:39:25.155Z,8.02
2023-10-11T04:40:25.114Z,8.03
2023-10-11T04:41:25.092Z,8.03
2023-10-11T04:42:25.072Z,8.00
2023-10-11T04:43:25.164Z,7.97
2023-10-11T04:44:25.056Z,7.97
2023-10-11T04:45:25.046Z,7.94
2023-10-11T04:46:25.822Z,7.93
2023-10-11T04:47:25.355Z,7.94
2023-10-11T04:48:25.106Z,7.92
2023-10-11T04:49:25.130Z,7.93
2023-10-11T04:50:24.987Z,7.94
2023-10-11T04:51:25.715Z,7.94
2023-10-11T04:52:25.348Z,7.92
2023-10-11T04:53:24.974Z,7.92
2023-10-11T04:54:26.340Z,7.92
2023-10-11T04:55:24.907Z,7.92
2023-10-11T04:56:24.884Z,7.90
2023-10-11T04:57:26.300Z,7.89
2023-10-11T04:58:24.867Z,7.87
2023-10-11T04:59:24.849Z,7.85
2023-10-11T05:00:25.417Z,7.87
2023-10-11T05:01:24.818Z,7.85
2023-10-11T05:02:25.539Z,7.85
2023-10-11T05:03:24.992Z,7.84
2023-10-11T05:04:25.457Z,7.85
2023-10-11T05:05:24.789Z,7.84
2023-10-11T05:06:24.790Z,7.84
2023-10-11T05:07:26.154Z,7.84
2023-10-11T05:08:25.352Z,7.82
2023-10-11T05:09:24.795Z,7.84
2023-10-11T05:10:25.446Z,7.81
2023-10-11T05:11:25.318Z,7.81
2023-10-11T05:12:25.435Z,7.85
2023-10-11T05:13:24.658Z,7.84
2023-10-11T05:14:24.635Z,7.82
2023-10-11T05:15:25.393Z,7.84
2023-10-11T05:16:25.357Z,7.82
2023-10-11T05:17:24.689Z,7.82
2023-10-11T05:18:25.698Z,7.82
2023-10-11T05:19:24.634Z,7.81
2023-10-11T05:20:24.668Z,7.82
2023-10-11T05:21:24.586Z,7.81
2023-10-11T05:22:24.533Z,7.79
2023-10-11T05:23:25.265Z,7.79
2023-10-11T05:24:24.552Z,7.78
2023-10-11T05:25:24.508Z,7.77
2023-10-11T05:26:25.219Z,7.77
2023-10-11T05:27:24.538Z,7.77
2023-10-11T05:28:24.448Z,7.75
2023-10-11T05:29:24.470Z,7.75
2023-10-11T05:30:24.443Z,7.75
2023-10-11T05:31:24.535Z,7.74
2023-10-11T05:32:24.428Z,7.75
2023-10-11T05:33:24.439Z,7.74
2023-10-11T05:34:25.120Z,7.74
2023-10-11T05:35:26.942Z,7.72
2023-10-11T05:36:24.385Z,7.74
2023-10-11T05:37:24.326Z,7.72
2023-10-11T05:38:24.308Z,7.74
2023-10-11T05:39:25.769Z,7.75
2023-10-11T05:40:26.243Z,7.79
2023-10-11T05:41:24.280Z,7.82
2023-10-11T05:42:26.255Z,7.79
2023-10-11T05:43:24.234Z,7.84
2023-10-11T05:44:24.259Z,7.87
2023-10-11T05:45:24.349Z,7.90
2023-10-11T05:46:24.309Z,7.89
2023-10-11T05:47:24.608Z,7.89
2023-10-11T05:48:24.250Z,7.85
2023-10-11T05:49:24.176Z,7.84
2023-10-11T05:50:24.868Z,7.84
2023-10-11T05:51:24.141Z,7.85
2023-10-11T05:52:24.123Z,7.84
2023-10-11T05:53:24.130Z,7.87
2023-10-11T05:54:24.115Z,7.85
2023-10-11T05:55:24.571Z,7.84
2023-10-11T05:56:24.621Z,7.85
2023-10-11T05:57:24.076Z,7.89
2023-10-11T05:58:24.797Z,7.90
2023-10-11T05:59:24.015Z,7.92
2023-10-11T06:00:24.047Z,7.94
2023-10-11T06:01:24.079Z,7.96
2023-10-11T06:02:23.974Z,7.94
2023-10-11T06:03:24.681Z,7.97
2023-10-11T06:04:23.993Z,7.99
2023-10-11T06:05:23.934Z,8.02
2023-10-11T06:06:25.059Z,8.03
2023-10-11T06:07:23.931Z,8.02
2023-10-11T06:08:23.904Z,8.03
2023-10-11T06:09:24.595Z,8.03
2023-10-11T06:10:23.869Z,8.03
2023-10-11T06:11:23.860Z,8.04
2023-10-11T06:12:24.376Z,8.07
2023-10-11T06:13:23.960Z,8.04
2023-10-11T06:14:24.581Z,8.07
2023-10-11T06:15:23.835Z,8.07
2023-10-11T06:16:23.865Z,8.08
2023-10-11T06:17:23.771Z,8.10
2023-10-11T06:18:23.810Z,8.11
2023-10-11T06:19:23.753Z,8.12
2023-10-11T06:20:23.741Z,8.15
2023-10-11T06:21:24.232Z,8.17
2023-10-11T06:22:25.122Z,8.18
2023-10-11T06:23:23.696Z,8.21
2023-10-11T06:24:23.719Z,8.22
2023-10-11T06:25:23.690Z,8.26
2023-10-11T06:26:23.647Z,8.29
2023-10-11T06:27:25.102Z,8.32
2023-10-11T06:28:23.645Z,8.35
2023-10-11T06:29:23.605Z,8.36
2023-10-11T06:30:24.450Z,8.39
2023-10-11T06:31:23.673Z,8.40
2023-10-11T06:32:23.640Z,8.42
2023-10-11T06:33:23.806Z,8.45
2023-10-11T06:34:23.577Z,8.47
2023-10-11T06:35:25.218Z,8.48
2023-10-11T06:36:23.585Z,8.50
2023-10-11T06:37:23.512Z,8.53
2023-10-11T06:38:24.906Z,8.55
2023-10-11T06:39:23.520Z,8.60
2023-10-11T06:40:23.468Z,8.60
2023-10-11T06:41:23.444Z,8.65
2023-10-11T06:42:23.833Z,8.68
2023-10-11T06:43:24.163Z,8.68
2023-10-11T06:44:23.411Z,8.69
2023-10-11T06:45:23.473Z,8.75
2023-10-11T06:46:23.446Z,8.76
2023-10-11T06:47:23.405Z,8.79
2023-10-11T06:48:23.439Z,8.87
2023-10-11T06:49:23.353Z,8.86
2023-10-11T06:50:23.342Z,8.90
2023-10-11T06:51:24.722Z,8.90
2023-10-11T06:52:23.302Z,8.91
2023-10-11T06:53:23.308Z,8.97
2023-10-11T06:54:24.062Z,9.04
2023-10-11T06:55:23.437Z,9.10
2023-10-11T06:56:23.266Z,9.13
2023-10-11T06:57:23.274Z,9.16
2023-10-11T06:58:23.218Z,9.21
2023-10-11T06:59:24.600Z,9.25
2023-10-11T07:00:23.205Z,9.30
2023-10-11T07:01:23.373Z,9.32
2023-10-11T07:02:23.376Z,9.38
2023-10-11T07:03:23.782Z,9.43
2023-10-11T07:04:23.166Z,9.46
2023-10-11T07:05:23.113Z,9.52
2023-10-11T07:06:23.185Z,9.61
2023-10-11T07:07:23.446Z,9.66
2023-10-11T07:08:23.078Z,9.70
2023-10-11T07:09:23.098Z,9.75
2023-10-11T07:10:23.459Z,9.81
2023-10-11T07:11:23.037Z,9.83
2023-10-11T07:12:23.046Z,9.89
2023-10-11T07:13:23.036Z,9.93
2023-10-11T07:14:23.688Z,9.99
2023-10-11T07:15:23.724Z,10.06
2023-10-11T07:16:23.000Z,10.14
2023-10-11T07:17:22.960Z,10.22
2023-10-11T07:18:23.669Z,10.34
2023-10-11T07:19:22.923Z,10.43
2023-10-11T07:20:22.960Z,10.53
2023-10-11T07:21:22.925Z,10.63
2023-10-11T07:22:22.885Z,10.71
2023-10-11T07:23:23.466Z,10.80
2023-10-11T07:24:23.617Z,10.89
2023-10-11T07:25:23.336Z,10.92
2023-10-11T07:26:22.832Z,10.96
2023-10-11T07:27:23.583Z,10.98
2023-10-11T07:28:23.479Z,11.06
2023-10-11T07:29:23.823Z,11.13
2023-10-11T07:30:22.811Z,11.19
2023-10-11T07:31:23.536Z,11.27
2023-10-11T07:32:22.905Z,11.38
2023-10-11T07:33:23.655Z,11.50
2023-10-11T07:34:23.603Z,11.61
2023-10-11T07:35:22.770Z,11.94
2023-10-11T07:36:22.845Z,12.75
2023-10-11T07:37:22.666Z,13.87
2023-10-11T07:38:22.661Z,14.78
2023-10-11T07:39:23.183Z,15.84
2023-10-11T07:40:23.382Z,16.78
2023-10-11T07:41:23.375Z,17.41
2023-10-11T07:42:24.021Z,17.94
2023-10-11T07:43:22.684Z,18.54
2023-10-11T07:44:22.600Z,18.64
2023-10-11T07:45:22.615Z,18.29
2023-10-11T07:46:23.348Z,17.81
2023-10-11T07:47:22.570Z,17.44
2023-10-11T07:48:22.749Z,17.64
2023-10-11T07:49:23.927Z,18.27
2023-10-11T07:50:23.243Z,18.99
2023-10-11T07:51:22.523Z,19.68
2023-10-11T07:52:22.462Z,19.98
2023-10-11T07:53:22.464Z,20.39
2023-10-11T07:54:22.494Z,20.47
2023-10-11T07:55:23.207Z,21.24
2023-10-11T07:56:22.405Z,21.99
2023-10-11T07:57:23.179Z,22.57
2023-10-11T07:58:22.394Z,23.22
2023-10-11T07:59:22.369Z,23.62
2023-10-11T08:00:22.726Z,24.04
2023-10-11T08:01:22.373Z,24.52
2023-10-11T08:02:22.367Z,24.91
2023-10-11T08:03:23.194Z,25.27
2023-10-11T08:04:22.310Z,25.56
2023-10-11T08:05:23.021Z,25.31
2023-10-11T08:06:22.310Z,25.27
2023-10-11T08:07:22.993Z,25.22
2023-10-11T08:08:22.265Z,25.47
2023-10-11T08:09:22.255Z,24.44
2023-10-11T08:10:22.253Z,23.12
2023-10-11T08:11:23.713Z,22.65
2023-10-11T08:12:22.239Z,22.32
2023-10-11T08:13:22.936Z,21.78
2023-10-11T08:14:22.187Z,21.39
2023-10-11T08:15:22.214Z,22.29
2023-10-11T08:16:22.194Z,22.53
2023-10-11T08:17:22.134Z,23.11
2023-10-11T08:18:26.112Z,23.83
2023-10-11T08:19:24.060Z,24.39
2023-10-11T08:20:22.078Z,24.98
2023-10-11T08:21:22.747Z,25.25
2023-10-11T08:22:22.059Z,25.44
2023-10-11T08:23:22.042Z,25.43
2023-10-11T08:24:22.099Z,25.52
2023-10-11T08:25:22.009Z,25.57
2023-10-11T08:26:22.755Z,25.01
2023-10-11T08:27:22.418Z,24.37
2023-10-11T08:28:23.929Z,24.76
2023-10-11T08:29:22.736Z,25.44
2023-10-11T08:30:22.727Z,25.83
2023-10-11T08:31:22.746Z,26.22
2023-10-11T08:32:21.910Z,25.90
2023-10-11T08:33:21.958Z,25.06
2023-10-11T08:34:21.894Z,24.83
2023-10-11T08:35:22.002Z,25.50
2023-10-11T08:36:22.082Z,24.94
2023-10-11T08:37:23.248Z,25.28
2023-10-11T08:38:22.080Z,25.50
2023-10-11T08:39:22.171Z,26.02
2023-10-11T08:40:21.832Z,26.62
2023-10-11T08:41:22.758Z,26.73
2023-10-11T08:42:22.233Z,25.19
2023-10-11T08:43:21.764Z,24.97
2023-10-11T08:44:21.941Z,24.37
2023-10-11T08:45:22.531Z,24.44
2023-10-11T08:46:21.889Z,24.97
2023-10-11T08:47:21.797Z,24.45
2023-10-11T08:48:21.840Z,24.32
2023-10-11T08:49:21.764Z,24.44
2023-10-11T08:50:21.764Z,25.42
2023-10-11T08:51:21.778Z,25.46
2023-10-11T08:52:23.048Z,25.10
2023-10-11T08:53:23.050Z,25.35
2023-10-11T08:54:25.434Z,24.69
2023-10-11T08:55:23.037Z,25.50
2023-10-11T08:56:21.602Z,25.13
2023-10-11T08:57:21.585Z,24.60
2023-10-11T08:58:21.551Z,24.44
2023-10-11T08:59:22.951Z,24.41
2023-10-11T09:00:21.564Z,25.25
2023-10-11T09:01:22.977Z,24.38
2023-10-11T09:02:21.513Z,24.71
2023-10-11T09:03:23.051Z,25.27
2023-10-11T09:04:21.769Z,24.87
2023-10-11T09:05:21.475Z,25.17
2023-10-11T09:06:21.499Z,26.09
2023-10-11T09:07:21.465Z,25.79
2023-10-11T09:08:21.434Z,25.46
2023-10-11T09:09:22.236Z,25.53
2023-10-11T09:10:21.445Z,25.64
2023-10-11T09:11:22.133Z,26.36
2023-10-11T09:12:21.569Z,25.54
2023-10-11T09:13:21.376Z,25.34
2023-10-11T09:14:21.367Z,26.09
2023-10-11T09:15:21.634Z,26.44
2023-10-11T09:16:21.371Z,27.33
2023-10-11T09:17:22.051Z,27.31
2023-10-11T09:18:23.992Z,27.89
2023-10-11T09:19:21.560Z,28.60
2023-10-11T09:20:21.522Z,27.67
2023-10-11T09:21:21.608Z,28.04
2023-10-11T09:22:21.270Z,28.69
2023-10-11T09:23:21.342Z,29.45
2023-10-11T09:24:21.232Z,30.00
2023-10-11T09:25:21.952Z,30.47
2023-10-11T09:27:21.235Z,30.18
2023-10-11T09:28:21.175Z,29.47
2023-10-11T09:29:21.151Z,27.96
2023-10-11T09:30:24.369Z,28.43
2023-10-11T09:31:21.594Z,29.29
2023-10-11T09:32:21.850Z,29.74
2023-10-11T09:33:21.504Z,29.92
2023-10-11T09:34:21.072Z,30.05
2023-10-11T09:35:21.563Z,29.60
2023-10-11T09:36:21.105Z,29.65
2023-10-11T09:37:21.055Z,30.19
2023-10-11T09:38:21.290Z,29.75
2023-10-11T09:39:21.613Z,29.31
2023-10-11T09:40:21.027Z,29.55
2023-10-11T09:41:22.397Z,29.78
2023-10-11T09:42:21.043Z,29.96
2023-10-11T09:43:21.582Z,29.74
2023-10-11T09:44:21.576Z,29.50
2023-10-11T09:45:21.233Z,29.75
2023-10-11T09:46:21.732Z,29.28
2023-10-11T09:47:21.592Z,28.80
2023-10-11T09:48:21.660Z,28.68
2023-10-11T09:49:21.634Z,29.23
2023-10-11T09:50:21.824Z,29.52
2023-10-11T09:51:21.613Z,30.00
2023-10-11T09:52:20.873Z,30.67
2023-10-11T09:53:20.833Z,30.96
2023-10-11T09:54:22.330Z,29.92
2023-10-11T09:55:20.863Z,27.76
2023-10-11T09:56:20.808Z,28.06
2023-10-11T09:57:22.278Z,27.94
2023-10-11T09:58:20.774Z,29.07
2023-10-11T09:59:20.835Z,29.82
2023-10-11T10:00:20.757Z,29.43
2023-10-11T10:01:20.805Z,29.10
2023-10-11T10:02:20.830Z,29.01
2023-10-11T10:03:20.873Z,29.43
2023-10-11T10:04:20.942Z,29.26
2023-10-11T10:05:21.477Z,28.96
2023-10-11T10:06:20.826Z,26.57
2023-10-11T10:07:21.469Z,27.16
2023-10-11T10:08:20.634Z,27.26
2023-10-11T10:09:20.632Z,27.53
2023-10-11T10:10:22.023Z,26.08
2023-10-11T10:11:20.634Z,26.28
2023-10-11T10:12:20.603Z,26.87
2023-10-11T10:13:21.330Z,26.42
2023-10-11T10:14:20.550Z,26.46
2023-10-11T10:15:21.693Z,25.98
2023-10-11T10:16:20.587Z,25.61
2023-10-11T10:17:20.523Z,25.99
2023-10-11T10:18:22.106Z,25.94
2023-10-11T10:19:20.621Z,25.94
2023-10-11T10:20:21.203Z,25.37
2023-10-11T10:21:21.270Z,25.30
2023-10-11T10:22:20.441Z,25.27
2023-10-11T10:23:21.851Z,25.35
2023-10-11T10:24:20.645Z,25.56
2023-10-11T10:25:20.524Z,25.72
2023-10-11T10:26:21.144Z,25.67
2023-10-11T10:27:20.468Z,25.87
2023-10-11T10:28:20.400Z,26.08
2023-10-11T10:29:22.333Z,25.93
2023-10-11T10:30:20.444Z,26.02
2023-10-11T10:31:20.358Z,26.04
2023-10-11T10:32:20.324Z,26.04
2023-10-11T10:33:20.485Z,26.06
2023-10-11T10:34:20.546Z,25.31
2023-10-11T10:35:20.456Z,24.91
2023-10-11T10:36:21.794Z,25.05
2023-10-11T10:37:21.053Z,25.19
2023-10-11T10:38:20.264Z,24.79
2023-10-11T10:39:21.018Z,24.73
2023-10-11T10:40:20.235Z,25.07
2023-10-11T10:41:20.212Z,24.82
2023-10-11T10:42:20.240Z,25.22
2023-10-11T10:43:20.188Z,25.19
2023-10-11T10:44:20.526Z,25.50
2023-10-11T10:45:20.961Z,26.24
2023-10-11T10:46:20.226Z,26.44
2023-10-11T10:47:20.142Z,26.31
2023-10-11T10:48:20.341Z,26.06
2023-10-11T10:49:20.128Z,25.71
2023-10-11T10:50:20.879Z,25.69
2023-10-11T10:51:20.101Z,26.65
2023-10-11T10:52:20.851Z,27.57
2023-10-11T10:53:22.048Z,28.38
2023-10-11T10:54:20.234Z,29.03
2023-10-11T10:55:20.808Z,29.50
2023-10-11T10:56:20.011Z,29.84
2023-10-11T10:57:20.772Z,28.13
2023-10-11T10:58:20.052Z,28.06
2023-10-11T10:59:20.074Z,27.85
2023-10-11T11:00:20.128Z,27.77
2023-10-11T11:01:20.712Z,28.40
2023-10-11T11:02:20.157Z,28.14
2023-10-11T11:03:20.364Z,27.48
2023-10-11T11:04:20.117Z,28.26
2023-10-11T11:05:19.920Z,27.76
2023-10-11T11:06:20.694Z,27.71
2023-10-11T11:07:19.904Z,28.38
2023-10-11T11:08:19.914Z,28.85
2023-10-11T11:09:20.701Z,28.41
2023-10-11T11:10:19.854Z,28.72
2023-10-11T11:11:19.849Z,28.91
2023-10-11T11:12:19.895Z,27.92
2023-10-11T11:13:19.789Z,27.94
2023-10-11T11:14:20.571Z,28.41
2023-10-11T11:15:19.910Z,29.41
2023-10-11T11:16:21.330Z,29.81
2023-10-11T11:17:21.152Z,30.49
2023-10-11T11:18:19.854Z,31.01
2023-10-11T11:19:19.713Z,31.49
2023-10-11T11:20:19.711Z,30.69
2023-10-11T11:21:19.806Z,30.81
2023-10-11T11:22:21.083Z,30.96
2023-10-11T11:23:21.610Z,30.26
2023-10-11T11:24:20.232Z,29.04
2023-10-11T11:25:19.651Z,29.45
2023-10-11T11:27:19.654Z,29.74
2023-10-11T11:28:19.950Z,30.26
2023-10-11T11:29:19.573Z,29.72
2023-10-11T11:30:20.399Z,28.28
2023-10-11T11:31:19.661Z,27.77
2023-10-11T11:32:19.542Z,28.54
2023-10-11T11:33:20.365Z,29.38
2023-10-11T11:34:19.618Z,28.85
2023-10-11T11:35:19.512Z,28.43
2023-10-11T11:36:19.527Z,29.13
2023-10-11T11:37:19.458Z,29.93
2023-10-11T11:38:20.194Z,30.26
2023-10-11T11:39:19.474Z,31.04
2023-10-11T11:40:19.459Z,31.24
2023-10-11T11:41:28.231Z,30.68
2023-10-11T11:42:20.929Z,30.53
2023-10-11T11:43:19.686Z,29.31
2023-10-11T11:44:19.442Z,28.32
2023-10-11T11:45:19.484Z,28.28
2023-10-11T11:46:19.425Z,27.95
2023-10-11T11:47:20.057Z,28.04
2023-10-11T11:48:19.363Z,28.50
2023-10-11T11:49:20.058Z,29.11
2023-10-11T11:50:19.587Z,28.75
2023-10-11T11:51:19.567Z,28.31
2023-10-11T11:52:19.294Z,28.75
2023-10-11T11:53:19.272Z,28.97
2023-10-11T11:54:19.829Z,29.56
2023-10-11T11:55:19.278Z,28.59
2023-10-11T11:56:19.229Z,28.50
2023-10-11T11:57:19.972Z,28.26
2023-10-11T11:58:19.198Z,28.80
2023-10-11T11:59:19.194Z,28.35
2023-10-11T12:00:19.980Z,28.40
2023-10-11T12:01:19.763Z,28.14
2023-10-11T12:02:19.196Z,27.77
2023-10-11T12:03:19.273Z,28.31
2023-10-11T12:04:19.949Z,28.32
2023-10-11T12:05:19.852Z,28.77
2023-10-11T12:06:19.137Z,28.54
2023-10-11T12:07:19.064Z,28.33
2023-10-11T12:08:19.060Z,28.91
2023-10-11T12:09:19.118Z,28.87
2023-10-11T12:10:19.034Z,28.66
2023-10-11T12:11:19.695Z,29.57
2023-10-11T12:12:19.110Z,29.70
2023-10-11T12:13:19.711Z,30.16
2023-10-11T12:14:19.228Z,30.52
2023-10-11T12:15:19.747Z,31.18
2023-10-11T12:16:19.176Z,31.28
2023-10-11T12:17:18.945Z,31.67
2023-10-11T12:18:19.557Z,32.30
2023-10-11T12:19:18.927Z,32.48
2023-10-11T12:20:18.903Z,32.89
2023-10-11T12:21:21.616Z,32.76
2023-10-11T12:22:18.875Z,32.22
2023-10-11T12:23:18.892Z,32.57
2023-10-11T12:24:31.228Z,32.73
2023-10-11T12:25:19.859Z,32.74
2023-10-11T12:26:20.236Z,31.72
2023-10-11T12:27:18.866Z,31.30
2023-10-11T12:28:18.986Z,30.37
2023-10-11T12:29:19.545Z,30.40
2023-10-11T12:30:18.803Z,29.68
2023-10-11T12:31:19.011Z,29.37
2023-10-11T12:32:18.778Z,28.36
2023-10-11T12:33:18.822Z,28.46
2023-10-11T12:34:18.895Z,29.20
2023-10-11T12:35:18.738Z,29.66
2023-10-11T12:36:18.863Z,29.08
2023-10-11T12:37:18.889Z,28.77
2023-10-11T12:38:18.703Z,28.43
2023-10-11T12:39:18.678Z,29.06
2023-10-11T12:40:18.665Z,29.45
2023-10-11T12:41:18.686Z,29.25
2023-10-11T12:42:20.070Z,29.65
2023-10-11T12:43:18.643Z,29.77
2023-10-11T12:44:18.750Z,29.81
2023-10-11T12:45:18.870Z,29.59
2023-10-11T12:46:20.343Z,29.66
2023-10-11T12:47:19.286Z,29.99
2023-10-11T12:48:18.601Z,30.11
2023-10-11T12:49:19.283Z,30.08
2023-10-11T12:50:18.542Z,30.74
2023-10-11T12:51:18.561Z,30.71
2023-10-11T12:52:18.545Z,31.46
2023-10-11T12:53:19.568Z,31.85
2023-10-11T12:54:18.640Z,30.72
2023-10-11T12:55:19.063Z,29.82
2023-10-11T12:56:18.445Z,30.46
2023-10-11T12:57:18.448Z,30.49
2023-10-11T12:58:19.025Z,29.56
2023-10-11T12:59:18.400Z,28.50
2023-10-11T13:00:18.413Z,29.15
2023-10-11T13:01:18.388Z,29.35
2023-10-11T13:02:18.387Z,29.77
2023-10-11T13:03:18.462Z,29.77
2023-10-11T13:04:18.574Z,30.29
2023-10-11T13:05:18.344Z,29.72
2023-10-11T13:06:19.122Z,30.18
2023-10-11T13:07:18.306Z,29.62
2023-10-11T13:08:19.037Z,29.90
2023-10-11T13:09:18.763Z,30.61